TVF25XN LFLL-LEPA
Flight info
| Callsign | TVF25XN |
|---|---|
| Flight time | N/A |
| Altitude | 35000 |
| Route | ROMAM A6 MTL DCT DIVKO DCT VATIR DCT PIVUS DCT BODEQ DCT VERSO L129 LUNIK |
| Aircraft | B738/M-SDE2E3FGHIRWXY/LB1 |
Departure
| Time | 2026-04-29 10:27 |
|---|---|
| Airport | Lyon Saint-Exupéry Airport (LFLL) |
Arrival
| Time | N/A |
|---|---|
| Airport | Palma de Mallorca Airport (LEPA) |
| Time | Latitude | Longitude | Altitude | Speed | Heading |
|---|---|---|---|---|---|
| 2026-04-29 10:05 | 45.71493 | 5.08288 | 801 ft | 0 kts | 14° |
| 2026-04-29 10:19 | 45.71476 | 5.08282 | 801 ft | 4 kts | 15° |
| 2026-04-29 10:20 | 45.71452 | 5.08273 | 802 ft | 2 kts | 15° |
| 2026-04-29 10:20 | 45.71431 | 5.08262 | 802 ft | 4 kts | 38° |
| 2026-04-29 10:20 | 45.71420 | 5.08237 | 802 ft | 4 kts | 103° |
| 2026-04-29 10:20 | 45.71425 | 5.08206 | 801 ft | 1 kts | 104° |
| 2026-04-29 10:21 | 45.71425 | 5.08205 | 801 ft | 0 kts | 104° |
| 2026-04-29 10:22 | 45.71425 | 5.08208 | 801 ft | 1 kts | 104° |
| 2026-04-29 10:23 | 45.71419 | 5.08243 | 802 ft | 6 kts | 104° |
| 2026-04-29 10:23 | 45.71407 | 5.08327 | 802 ft | 11 kts | 91° |
| 2026-04-29 10:23 | 45.71414 | 5.08440 | 805 ft | 11 kts | 84° |
| 2026-04-29 10:23 | 45.71382 | 5.08529 | 810 ft | 11 kts | 157° |
| 2026-04-29 10:24 | 45.71305 | 5.08541 | 812 ft | 11 kts | 175° |
| 2026-04-29 10:24 | 45.71231 | 5.08549 | 813 ft | 11 kts | 175° |
| 2026-04-29 10:24 | 45.71161 | 5.08566 | 812 ft | 10 kts | 161° |
| 2026-04-29 10:24 | 45.71117 | 5.08640 | 813 ft | 10 kts | 108° |
| 2026-04-29 10:25 | 45.71100 | 5.08734 | 818 ft | 10 kts | 103° |
| 2026-04-29 10:25 | 45.71083 | 5.08834 | 818 ft | 11 kts | 104° |
| 2026-04-29 10:25 | 45.71079 | 5.08941 | 817 ft | 11 kts | 84° |
| 2026-04-29 10:25 | 45.71111 | 5.09026 | 819 ft | 11 kts | 15° |
| 2026-04-29 10:26 | 45.71215 | 5.09017 | 816 ft | 28 kts | 355° |
| 2026-04-29 10:26 | 45.71665 | 5.08961 | 814 ft | 101 kts | 354° |
| 2026-04-29 10:26 | 45.72588 | 5.08850 | 793 ft | 163 kts | 356° |
| 2026-04-29 10:26 | 45.73815 | 5.08701 | 1200 ft | 182 kts | 356° |
| 2026-04-29 10:27 | 45.76413 | 5.08398 | 2691 ft | 194 kts | 358° |
| 2026-04-29 10:27 | 45.77861 | 5.08224 | 2890 ft | 220 kts | 357° |
| 2026-04-29 10:27 | 45.79431 | 5.08027 | 3069 ft | 239 kts | 356° |
| 2026-04-29 10:28 | 45.81140 | 5.07808 | 3387 ft | 253 kts | 356° |
| 2026-04-29 10:28 | 45.82889 | 5.08074 | 3911 ft | 253 kts | 27° |
| 2026-04-29 10:28 | 45.84242 | 5.09622 | 4587 ft | 250 kts | 59° |
| 2026-04-29 10:28 | 45.84848 | 5.11903 | 5281 ft | 245 kts | 87° |
| 2026-04-29 10:29 | 45.84622 | 5.14308 | 5932 ft | 245 kts | 114° |
| 2026-04-29 10:29 | 45.83636 | 5.16239 | 6557 ft | 247 kts | 142° |
| 2026-04-29 10:29 | 45.82100 | 5.17343 | 7181 ft | 249 kts | 165° |
| 2026-04-29 10:29 | 45.80404 | 5.17880 | 7862 ft | 251 kts | 169° |
| 2026-04-29 10:30 | 45.78668 | 5.18336 | 8541 ft | 254 kts | 170° |
| 2026-04-29 10:30 | 45.76927 | 5.18801 | 9250 ft | 256 kts | 170° |
| 2026-04-29 10:30 | 45.75183 | 5.19284 | 9926 ft | 259 kts | 169° |
| 2026-04-29 10:30 | 45.73400 | 5.19786 | 10577 ft | 262 kts | 169° |
| 2026-04-29 10:31 | 45.71594 | 5.20275 | 11234 ft | 265 kts | 173° |
| 2026-04-29 10:31 | 45.69690 | 5.20373 | 11544 ft | 285 kts | 182° |
| 2026-04-29 10:31 | 45.67628 | 5.20230 | 11732 ft | 307 kts | 184° |
| 2026-04-29 10:31 | 45.65412 | 5.20028 | 11896 ft | 329 kts | 184° |
| 2026-04-29 10:32 | 45.63057 | 5.19817 | 12103 ft | 348 kts | 184° |
| 2026-04-29 10:32 | 45.60622 | 5.19615 | 12525 ft | 359 kts | 183° |
| 2026-04-29 10:32 | 45.58102 | 5.19422 | 13087 ft | 365 kts | 183° |
| 2026-04-29 10:32 | 45.55547 | 5.19239 | 13727 ft | 370 kts | 182° |
| 2026-04-29 10:33 | 45.52957 | 5.19062 | 14391 ft | 373 kts | 182° |
| 2026-04-29 10:33 | 45.50349 | 5.18888 | 15065 ft | 375 kts | 182° |
| 2026-04-29 10:33 | 45.47734 | 5.18717 | 15807 ft | 376 kts | 182° |
| 2026-04-29 10:33 | 45.45142 | 5.18548 | 16418 ft | 380 kts | 182° |
| 2026-04-29 10:34 | 45.42460 | 5.18374 | 16922 ft | 387 kts | 182° |
| 2026-04-29 10:34 | 45.39750 | 5.18198 | 17523 ft | 391 kts | 182° |
| 2026-04-29 10:34 | 45.37016 | 5.18021 | 18155 ft | 394 kts | 182° |
| 2026-04-29 10:34 | 45.34255 | 5.17843 | 18704 ft | 398 kts | 183° |
| 2026-04-29 10:35 | 45.31473 | 5.17663 | 19224 ft | 401 kts | 183° |
| 2026-04-29 10:35 | 45.28697 | 5.17484 | 19741 ft | 405 kts | 183° |
| 2026-04-29 10:35 | 45.25874 | 5.17301 | 20252 ft | 408 kts | 184° |
| 2026-04-29 10:35 | 45.23027 | 5.17118 | 20765 ft | 411 kts | 184° |
| 2026-04-29 10:36 | 45.20152 | 5.16932 | 21265 ft | 414 kts | 184° |
| 2026-04-29 10:36 | 45.17254 | 5.16746 | 21746 ft | 418 kts | 184° |
| 2026-04-29 10:36 | 45.14338 | 5.16559 | 22212 ft | 421 kts | 184° |
| 2026-04-29 10:36 | 45.11433 | 5.16343 | 22692 ft | 423 kts | 187° |
| 2026-04-29 10:37 | 45.08586 | 5.15295 | 23088 ft | 424 kts | 207° |
| 2026-04-29 10:37 | 45.05954 | 5.13394 | 23582 ft | 425 kts | 208° |
| 2026-04-29 10:37 | 45.03312 | 5.11475 | 23963 ft | 428 kts | 208° |
| 2026-04-29 10:37 | 45.00643 | 5.09560 | 24352 ft | 430 kts | 208° |
| 2026-04-29 10:38 | 44.97954 | 5.07656 | 24758 ft | 432 kts | 208° |
| 2026-04-29 10:38 | 44.95287 | 5.05782 | 25139 ft | 434 kts | 208° |
| 2026-04-29 10:38 | 44.92569 | 5.03883 | 25523 ft | 437 kts | 208° |
| 2026-04-29 10:38 | 44.89841 | 5.01981 | 25882 ft | 439 kts | 208° |
| 2026-04-29 10:39 | 44.87094 | 5.00068 | 26230 ft | 441 kts | 208° |
| 2026-04-29 10:39 | 44.84329 | 4.98143 | 26589 ft | 443 kts | 208° |
| 2026-04-29 10:39 | 44.81557 | 4.96217 | 26934 ft | 446 kts | 208° |
| 2026-04-29 10:39 | 44.78765 | 4.94277 | 27277 ft | 447 kts | 207° |
| 2026-04-29 10:40 | 44.75969 | 4.92335 | 27651 ft | 448 kts | 207° |
| 2026-04-29 10:40 | 44.73154 | 4.90385 | 27987 ft | 450 kts | 207° |
| 2026-04-29 10:40 | 44.70371 | 4.88446 | 28283 ft | 453 kts | 208° |
| 2026-04-29 10:40 | 44.67540 | 4.86454 | 28559 ft | 455 kts | 208° |
| 2026-04-29 10:41 | 44.64704 | 4.84455 | 28854 ft | 457 kts | 208° |
| 2026-04-29 10:41 | 44.61851 | 4.82449 | 29199 ft | 458 kts | 208° |
| 2026-04-29 10:41 | 44.58993 | 4.80462 | 29645 ft | 457 kts | 206° |
| 2026-04-29 10:41 | 44.56005 | 4.78926 | 30119 ft | 457 kts | 197° |
| 2026-04-29 10:42 | 44.52925 | 4.78052 | 30496 ft | 457 kts | 189° |
| 2026-04-29 10:42 | 44.49732 | 4.77811 | 30790 ft | 460 kts | 182° |
| 2026-04-29 10:42 | 44.46518 | 4.77823 | 31047 ft | 461 kts | 181° |
| 2026-04-29 10:42 | 44.43300 | 4.77866 | 31354 ft | 461 kts | 181° |
| 2026-04-29 10:43 | 44.40088 | 4.77908 | 31726 ft | 460 kts | 182° |
| 2026-04-29 10:43 | 44.36926 | 4.77937 | 32089 ft | 458 kts | 182° |
| 2026-04-29 10:43 | 44.33731 | 4.77951 | 32406 ft | 458 kts | 182° |
| 2026-04-29 10:43 | 44.30536 | 4.77955 | 32685 ft | 458 kts | 182° |
| 2026-04-29 10:44 | 44.27374 | 4.77952 | 32969 ft | 458 kts | 182° |
| 2026-04-29 10:44 | 44.24185 | 4.77946 | 33296 ft | 457 kts | 182° |
| 2026-04-29 10:44 | 44.20997 | 4.77938 | 33628 ft | 456 kts | 182° |
| 2026-04-29 10:44 | 44.17807 | 4.77929 | 33935 ft | 456 kts | 182° |
| 2026-04-29 10:45 | 44.14621 | 4.77921 | 34189 ft | 456 kts | 182° |
| 2026-04-29 10:45 | 44.11496 | 4.77914 | 34480 ft | 454 kts | 182° |
| 2026-04-29 10:45 | 44.08338 | 4.77908 | 34855 ft | 450 kts | 182° |
| 2026-04-29 10:45 | 44.05208 | 4.77902 | 35014 ft | 452 kts | 182° |
| 2026-04-29 10:46 | 44.02050 | 4.77895 | 35013 ft | 454 kts | 182° |
| 2026-04-29 10:46 | 43.95756 | 4.77882 | 35017 ft | 450 kts | 182° |
| 2026-04-29 10:47 | 43.89512 | 4.77870 | 35005 ft | 447 kts | 182° |
| 2026-04-29 10:47 | 43.83313 | 4.77857 | 35025 ft | 445 kts | 182° |
| 2026-04-29 10:48 | 43.77143 | 4.77844 | 35021 ft | 445 kts | 182° |
| 2026-04-29 10:48 | 43.71990 | 4.77833 | 35015 ft | 445 kts | 182° |
| 2026-04-29 10:49 | 43.65770 | 4.77820 | 35001 ft | 446 kts | 182° |
| 2026-04-29 10:49 | 43.59574 | 4.77808 | 35003 ft | 447 kts | 182° |
| 2026-04-29 10:50 | 43.53333 | 4.77795 | 35019 ft | 449 kts | 182° |
| 2026-04-29 10:50 | 43.47074 | 4.77782 | 35023 ft | 449 kts | 182° |
| 2026-04-29 10:51 | 43.40836 | 4.77770 | 35020 ft | 450 kts | 182° |